Time;durP1;ratioP1;P1;durP2;ratioP2;P2;SDS_P1;SDS_P2;PMS_P1;PMS_P2;Temp;Humidity;BMP_temperature;BMP_pressure;BME280_temperature;BME280_humidity;BME280_pressure;Samples;Min_cycle;Max_cycle;Signal;HPM_P1;HPM_P2
2022/09/07 00:02:19;;;;;;;3.77;2.20;;;18.60;64.10;;;;;;5051174;28;20696;-66
2022/09/07 00:04:45;;;;;;;4.47;2.10;;;18.50;64.20;;;;;;5057248;28;20225;-66
2022/09/07 00:07:10;;;;;;;4.20;2.20;;;18.50;64.40;;;;;;5051308;28;20213;-67
2022/09/07 00:09:36;;;;;;;2.40;2.20;;;18.50;64.70;;;;;;5063121;28;20207;-67
2022/09/07 00:12:02;;;;;;;2.37;1.70;;;18.40;64.90;;;;;;5054927;28;20591;-66
2022/09/07 00:14:27;;;;;;;2.73;2.03;;;18.30;64.60;;;;;;5058801;28;20201;-66
2022/09/07 00:16:53;;;;;;;2.60;1.93;;;18.30;64.80;;;;;;5055047;28;20735;-66
2022/09/07 00:19:18;;;;;;;4.17;2.40;;;18.30;65.00;;;;;;5044823;28;20190;-66
2022/09/07 00:21:44;;;;;;;4.10;1.97;;;18.10;64.80;;;;;;5047083;28;20204;-66
2022/09/07 00:24:09;;;;;;;2.23;2.03;;;18.10;65.40;;;;;;5056454;28;20303;-66
2022/09/07 00:26:35;;;;;;;2.90;1.90;;;17.90;65.50;;;;;;5061193;28;20197;-66
2022/09/07 00:29:02;;;;;;;2.10;1.80;;;17.90;65.70;;;;;;5052680;28;20241;-66
2022/09/07 00:31:29;;;;;;;2.20;2.00;;;17.90;65.80;;;;;;5040468;28;20194;-66
2022/09/07 00:33:57;;;;;;;3.10;2.00;;;17.80;65.70;;;;;;5049844;28;20207;-66
2022/09/07 00:36:23;;;;;;;2.93;2.20;;;17.80;65.70;;;;;;5051250;28;20198;-66
2022/09/07 00:38:49;;;;;;;3.13;1.60;;;17.80;65.90;;;;;;5049881;28;20184;-66
2022/09/07 00:41:16;;;;;;;2.97;2.33;;;17.70;66.30;;;;;;5060638;28;20650;-66
2022/09/07 00:43:45;;;;;;;2.20;2.00;;;17.60;66.40;;;;;;5045363;28;20669;-66
2022/09/07 00:46:16;;;;;;;2.57;2.23;;;17.60;66.30;;;;;;5053880;28;20299;-65
2022/09/07 00:49:09;;;;;;;4.77;2.03;;;17.50;66.70;;;;;;5060585;28;20211;-65
2022/09/07 00:51:46;;;;;;;10.90;2.10;;;17.40;67.20;;;;;;5054698;28;20180;-65
2022/09/07 00:54:17;;;;;;;2.97;2.10;;;17.30;67.50;;;;;;5055108;28;20196;-65
2022/09/07 00:56:45;;;;;;;9.23;2.53;;;17.30;67.60;;;;;;5054785;28;20706;-66
2022/09/07 00:59:15;;;;;;;2.80;2.07;;;17.30;67.30;;;;;;5065234;28;20245;-65
2022/09/07 01:01:41;;;;;;;3.23;2.40;;;17.30;67.40;;;;;;5058595;28;20211;-65
2022/09/07 01:04:07;;;;;;;2.47;2.00;;;17.20;67.70;;;;;;5058336;28;20197;-65
2022/09/07 01:06:35;;;;;;;2.87;1.80;;;17.10;67.80;;;;;;5061258;28;20212;-65
2022/09/07 01:09:11;;;;;;;2.33;2.00;;;17.10;67.90;;;;;;5053226;28;20564;-65
2022/09/07 01:11:37;;;;;;;3.03;1.70;;;17.10;68.60;;;;;;5054960;28;20204;-64
2022/09/07 01:14:06;;;;;;;2.00;1.90;;;17.00;68.00;;;;;;5049005;28;20284;-65
2022/09/07 01:17:07;;;;;;;4.00;2.07;;;17.00;67.90;;;;;;5051570;28;20204;-65
2022/09/07 01:19:57;;;;;;;4.43;1.87;;;17.00;67.80;;;;;;5046315;28;20177;-65
2022/09/07 01:22:40;;;;;;;4.93;2.20;;;17.00;68.40;;;;;;5056740;28;20200;-65
2022/09/07 01:25:24;;;;;;;3.33;1.80;;;17.00;68.20;;;;;;5062610;28;20209;-65
2022/09/07 01:28:09;;;;;;;3.33;2.13;;;17.00;68.10;;;;;;5053695;28;20226;-64
2022/09/07 01:30:37;;;;;;;3.10;2.00;;;17.00;68.30;;;;;;5047350;28;20236;-64
2022/09/07 01:33:09;;;;;;;3.73;1.87;;;16.90;68.70;;;;;;5057701;28;20219;-66
2022/09/07 01:35:58;;;;;;;2.67;2.17;;;16.90;68.60;;;;;;5049564;28;20256;-64
2022/09/07 01:38:37;;;;;;;3.17;1.90;;;16.90;68.60;;;;;;5050121;28;20206;-65
2022/09/07 01:41:29;;;;;;;3.17;2.17;;;16.90;69.40;;;;;;5057472;28;20768;-65
2022/09/07 01:44:19;;;;;;;4.27;1.83;;;16.80;69.60;;;;;;5064598;28;20198;-65
2022/09/07 01:47:09;;;;;;;5.17;1.90;;;16.90;69.00;;;;;;5057817;28;20208;-64
2022/09/07 01:49:44;;;;;;;3.47;2.17;;;16.90;68.80;;;;;;5053541;28;20214;-64
2022/09/07 01:52:58;;;;;;;4.70;2.63;;;16.90;69.20;;;;;;5056069;28;20199;-64
2022/09/07 01:55:43;;;;;;;2.63;1.80;;;16.80;68.80;;;;;;4965421;28;20189;-64
2022/09/07 01:58:20;;;;;;;4.00;2.07;;;16.80;69.70;;;;;;4963024;28;20246;-64
2022/09/07 02:00:53;;;;;;;3.13;1.77;;;16.80;69.90;;;;;;5027044;28;20207;-64
2022/09/07 02:03:30;;;;;;;3.10;1.83;;;16.70;70.10;;;;;;5049300;28;20203;-64
2022/09/07 02:06:06;;;;;;;3.23;2.20;;;16.70;70.00;;;;;;5055323;28;20187;-64
2022/09/07 02:08:41;;;;;;;6.37;2.30;;;16.70;70.10;;;;;;5050614;28;20222;-65
2022/09/07 02:11:11;;;;;;;3.63;2.00;;;16.60;70.20;;;;;;5057077;28;20293;-65
2022/09/07 02:13:40;;;;;;;3.23;2.00;;;16.60;70.80;;;;;;5051816;28;20669;-64
2022/09/07 02:16:28;;;;;;;4.10;1.90;;;16.50;71.00;;;;;;5061257;28;20983;-64
2022/09/07 02:18:59;;;;;;;1.83;1.70;;;16.50;71.00;;;;;;5050334;28;20205;-64
2022/09/07 02:21:31;;;;;;;2.17;1.90;;;16.50;71.10;;;;;;5064016;28;20264;-64
2022/09/07 02:24:03;;;;;;;1.23;1.23;;;16.50;70.90;;;;;;5054435;28;20585;-65
2022/09/07 02:26:29;;;;;;;2.47;2.27;;;16.50;71.50;;;;;;5055821;28;20241;-65
2022/09/07 02:28:56;;;;;;;4.07;2.40;;;16.50;71.40;;;;;;5054513;28;20211;-64
2022/09/07 02:31:40;;;;;;;3.37;2.13;;;16.50;71.40;;;;;;5065431;28;20190;-65
2022/09/07 02:34:06;;;;;;;3.93;2.13;;;16.50;72.00;;;;;;5059376;28;20200;-64
2022/09/07 02:36:38;;;;;;;3.33;1.80;;;16.50;72.00;;;;;;5058260;28;20252;-64
2022/09/07 02:39:04;;;;;;;3.50;2.33;;;16.50;72.40;;;;;;5054753;28;20216;-64
2022/09/07 02:41:36;;;;;;;3.43;1.93;;;16.40;72.10;;;;;;5053919;28;20200;-65
2022/09/07 02:44:06;;;;;;;2.47;2.27;;;16.40;72.40;;;;;;5058977;28;20216;-64
2022/09/07 02:46:58;;;;;;;3.60;1.63;;;16.40;72.50;;;;;;5057140;28;20253;-64
2022/09/07 02:49:41;;;;;;;2.70;1.80;;;16.30;72.60;;;;;;5015328;28;20219;-66
2022/09/07 02:52:32;;;;;;;5.63;2.07;;;16.30;73.40;;;;;;5059855;28;20229;-66
2022/09/07 02:55:19;;;;;;;2.60;1.97;;;16.20;73.60;;;;;;5059796;28;20254;-65
2022/09/07 02:58:11;;;;;;;2.27;2.07;;;16.20;73.30;;;;;;5052287;28;20744;-67
2022/09/07 03:00:46;;;;;;;1.90;1.80;;;16.20;73.90;;;;;;5060478;28;20203;-66
2022/09/07 03:03:50;;;;;;;3.17;2.30;;;16.20;73.80;;;;;;5055302;28;20226;-65
2022/09/07 03:06:24;;;;;;;2.43;2.10;;;16.10;73.90;;;;;;5033082;28;20203;-66
2022/09/07 03:08:54;;;;;;;2.67;2.27;;;16.10;74.10;;;;;;5047953;28;20240;-66
2022/09/07 03:11:20;;;;;;;3.40;2.00;;;16.10;74.50;;;;;;5053187;28;20194;-67
2022/09/07 03:13:46;;;;;;;3.37;2.37;;;16.00;74.80;;;;;;5043433;28;20209;-66
2022/09/07 03:16:14;;;;;;;4.10;1.93;;;15.90;75.10;;;;;;5049542;28;20184;-66
2022/09/07 03:18:42;;;;;;;3.33;2.33;;;15.90;76.10;;;;;;5047322;28;20227;-66
2022/09/07 03:21:07;;;;;;;3.63;2.17;;;15.80;75.90;;;;;;5045102;28;20231;-66
2022/09/07 03:23:33;;;;;;;5.93;2.53;;;15.80;76.10;;;;;;5059169;28;20206;-66
2022/09/07 03:25:58;;;;;;;5.10;2.30;;;15.90;75.90;;;;;;5057284;28;20199;-66
2022/09/07 03:28:24;;;;;;;4.10;2.20;;;16.00;75.80;;;;;;5060351;28;20224;-66
2022/09/07 03:30:49;;;;;;;4.10;1.80;;;15.90;76.10;;;;;;5054650;28;20210;-66
2022/09/07 03:33:16;;;;;;;3.90;2.00;;;16.00;75.90;;;;;;5050456;28;20565;-66
2022/09/07 03:35:55;;;;;;;1.73;1.63;;;16.00;76.10;;;;;;5047588;28;20187;-65
2022/09/07 03:38:20;;;;;;;5.47;2.40;;;15.90;76.20;;;;;;5053206;28;20737;-65
2022/09/07 03:40:56;;;;;;;2.97;2.10;;;15.90;76.40;;;;;;5055371;28;20195;-65
2022/09/07 03:43:23;;;;;;;4.77;2.60;;;15.90;76.50;;;;;;5058627;28;20202;-65
2022/09/07 03:45:49;;;;;;;3.93;2.53;;;15.80;76.70;;;;;;5059799;28;20539;-66
2022/09/07 03:48:14;;;;;;;5.17;2.37;;;15.80;77.20;;;;;;5052915;28;20205;-65
2022/09/07 03:50:40;;;;;;;4.17;1.90;;;15.80;77.30;;;;;;5052832;28;20574;-65
2022/09/07 03:53:05;;;;;;;4.67;3.10;;;15.80;77.40;;;;;;5051158;28;20198;-65
2022/09/07 03:55:30;;;;;;;4.80;2.50;;;15.80;77.40;;;;;;5056944;28;20576;-64
2022/09/07 03:57:56;;;;;;;3.93;1.93;;;15.80;77.40;;;;;;5053964;28;20277;-66
2022/09/07 04:00:21;;;;;;;5.17;3.03;;;15.80;77.60;;;;;;5045451;28;20192;-64
2022/09/07 04:02:47;;;;;;;3.13;2.30;;;15.80;77.50;;;;;;5049518;28;20289;-64
2022/09/07 04:05:12;;;;;;;5.77;2.77;;;15.80;77.50;;;;;;5052172;28;20715;-64
2022/09/07 04:07:38;;;;;;;4.60;2.50;;;15.80;77.60;;;;;;5051239;28;20661;-65
2022/09/07 04:10:03;;;;;;;3.57;2.53;;;15.80;78.20;;;;;;5053154;28;20277;-65
2022/09/07 04:12:29;;;;;;;3.83;2.97;;;15.70;78.50;;;;;;5052813;28;20200;-65
2022/09/07 04:14:54;;;;;;;3.40;2.53;;;15.70;78.80;;;;;;5054117;28;20187;-65
2022/09/07 04:17:20;;;;;;;2.93;2.37;;;15.70;79.10;;;;;;5052640;28;20762;-65
2022/09/07 04:19:45;;;;;;;6.07;3.13;;;15.70;79.60;;;;;;5059539;28;20191;-65
2022/09/07 04:22:11;;;;;;;5.50;3.60;;;15.60;79.30;;;;;;5053813;28;20202;-65
2022/09/07 04:24:36;;;;;;;4.33;2.97;;;15.60;79.80;;;;;;5060695;28;20186;-65
2022/09/07 04:27:02;;;;;;;6.67;2.80;;;15.60;80.00;;;;;;5055760;28;20290;-64
2022/09/07 04:29:27;;;;;;;5.93;2.73;;;15.60;80.20;;;;;;5062732;28;20695;-64
2022/09/07 04:31:53;;;;;;;4.90;2.13;;;15.60;80.10;;;;;;5063120;28;20230;-65
2022/09/07 04:34:19;;;;;;;3.40;2.60;;;15.70;80.40;;;;;;5051655;28;20212;-65
2022/09/07 04:36:45;;;;;;;4.60;2.67;;;15.70;80.30;;;;;;5057053;28;20188;-65
2022/09/07 04:39:10;;;;;;;4.13;2.73;;;15.70;80.30;;;;;;5055146;28;20209;-65
2022/09/07 04:41:35;;;;;;;3.60;2.80;;;15.70;81.10;;;;;;5051846;28;20671;-65
2022/09/07 04:44:02;;;;;;;2.40;2.20;;;15.70;80.50;;;;;;5055708;28;20198;-65
2022/09/07 04:46:33;;;;;;;4.97;2.87;;;15.70;80.60;;;;;;5062751;28;20214;-66
2022/09/07 04:49:02;;;;;;;4.93;2.70;;;15.80;80.90;;;;;;5051926;28;20225;-66
2022/09/07 04:51:29;;;;;;;4.90;2.57;;;15.70;81.10;;;;;;5062276;28;20239;-64
2022/09/07 04:53:56;;;;;;;3.00;2.70;;;15.70;81.40;;;;;;5051661;28;20198;-65
2022/09/07 04:56:22;;;;;;;3.80;2.67;;;15.70;81.70;;;;;;5053118;28;20592;-66
2022/09/07 04:58:48;;;;;;;3.27;2.67;;;15.70;81.90;;;;;;5051075;28;20696;-66
2022/09/07 05:01:19;;;;;;;6.80;2.63;;;15.70;81.60;;;;;;5056635;28;20234;-66
2022/09/07 05:03:45;;;;;;;4.13;2.50;;;15.70;81.90;;;;;;5052559;28;20237;-67
2022/09/07 05:06:11;;;;;;;4.53;2.67;;;15.70;81.60;;;;;;5051619;28;20198;-63
2022/09/07 05:08:38;;;;;;;5.50;3.10;;;15.80;82.00;;;;;;5045963;28;20219;-71
2022/09/07 05:11:04;;;;;;;3.47;2.47;;;15.70;82.50;;;;;;5054237;28;20297;-63
2022/09/07 05:13:30;;;;;;;4.43;3.03;;;15.70;82.50;;;;;;5056533;28;20541;-63
2022/09/07 05:15:57;;;;;;;5.83;3.10;;;15.70;83.10;;;;;;5061869;28;20234;-63
2022/09/07 05:18:23;;;;;;;3.80;2.43;;;15.70;83.10;;;;;;5054354;28;20576;-63
2022/09/07 05:20:48;;;;;;;4.13;2.47;;;15.80;82.50;;;;;;5057348;28;20226;-63
2022/09/07 05:23:14;;;;;;;3.53;2.40;;;15.90;82.40;;;;;;5055365;28;20198;-63
2022/09/07 05:25:48;;;;;;;6.13;3.07;;;15.90;83.00;;;;;;5055214;28;20301;-63
2022/09/07 05:28:14;;;;;;;6.93;3.20;;;15.90;82.80;;;;;;5057550;28;20248;-63
2022/09/07 05:30:39;;;;;;;7.90;2.93;;;15.90;83.00;;;;;;5062536;28;20191;-63
2022/09/07 05:33:07;;;;;;;2.90;2.53;;;15.90;83.10;;;;;;5056898;28;20278;-63
2022/09/07 05:35:33;;;;;;;5.07;3.23;;;15.90;82.90;;;;;;5057925;28;20711;-64
2022/09/07 05:37:58;;;;;;;4.63;2.73;;;15.90;83.70;;;;;;5058616;28;20185;-65
2022/09/07 05:40:24;;;;;;;5.13;3.17;;;16.00;83.30;;;;;;5060836;28;20814;-64
2022/09/07 05:42:49;;;;;;;4.17;3.03;;;16.10;83.10;;;;;;5058967;28;20202;-64
2022/09/07 05:45:15;;;;;;;3.60;3.17;;;16.10;83.30;;;;;;5055834;28;20273;-64
2022/09/07 05:47:47;;;;;;;6.20;3.00;;;16.10;83.50;;;;;;5054806;28;20304;-64
2022/09/07 05:50:12;;;;;;;4.10;3.23;;;16.20;83.60;;;;;;5054974;28;20240;-64
2022/09/07 05:52:38;;;;;;;5.20;2.97;;;16.20;83.80;;;;;;5058998;28;20560;-63
2022/09/07 05:55:04;;;;;;;3.20;2.67;;;16.20;83.60;;;;;;5057981;28;20183;-63
2022/09/07 05:57:29;;;;;;;8.77;3.63;;;16.20;84.00;;;;;;5056094;28;20680;-64
2022/09/07 05:59:54;;;;;;;3.60;2.83;;;16.20;84.30;;;;;;5057971;28;20217;-63
2022/09/07 06:02:20;;;;;;;8.97;3.43;;;16.20;84.00;;;;;;5056169;28;20661;-63
2022/09/07 06:04:46;;;;;;;5.17;3.33;;;16.30;83.90;;;;;;5053395;28;20702;-64
2022/09/07 06:07:12;;;;;;;6.60;2.90;;;16.40;83.70;;;;;;5059167;28;20210;-63
2022/09/07 06:09:38;;;;;;;5.27;3.30;;;16.50;83.70;;;;;;5056848;28;20694;-64
2022/09/07 06:12:05;;;;;;;4.67;2.80;;;16.60;83.30;;;;;;5061651;28;20206;-64
2022/09/07 06:14:33;;;;;;;6.07;3.30;;;16.60;83.40;;;;;;5049182;28;20211;-64
2022/09/07 06:16:59;;;;;;;5.03;3.00;;;16.70;83.50;;;;;;5045944;28;20200;-64
2022/09/07 06:19:25;;;;;;;4.63;3.00;;;16.70;83.50;;;;;;5055105;28;20204;-63
2022/09/07 06:21:50;;;;;;;3.97;3.47;;;16.80;83.10;;;;;;5052678;28;20202;-63
2022/09/07 06:24:16;;;;;;;3.20;2.83;;;16.90;83.30;;;;;;5054613;28;20210;-63
2022/09/07 06:26:41;;;;;;;6.53;3.43;;;17.00;83.20;;;;;;5052158;28;20289;-63
2022/09/07 06:29:08;;;;;;;4.50;3.23;;;17.00;83.90;;;;;;5050001;28;20215;-63
2022/09/07 06:31:34;;;;;;;4.03;2.83;;;17.10;83.00;;;;;;5054328;28;20197;-63
2022/09/07 06:34:00;;;;;;;4.80;3.60;;;17.20;82.90;;;;;;5062021;28;20213;-63
2022/09/07 06:36:27;;;;;;;5.60;3.23;;;17.30;82.60;;;;;;5045901;28;20188;-63
2022/09/07 06:38:54;;;;;;;7.07;3.60;;;17.40;81.90;;;;;;5054820;28;20206;-64
2022/09/07 06:41:19;;;;;;;4.33;3.93;;;17.50;81.60;;;;;;5059085;28;20209;-63
2022/09/07 06:43:45;;;;;;;4.87;3.70;;;17.60;81.80;;;;;;5055970;28;20205;-63
2022/09/07 06:46:11;;;;;;;5.90;3.50;;;17.60;82.10;;;;;;5056432;28;20192;-63
2022/09/07 06:48:37;;;;;;;3.90;3.43;;;17.60;82.30;;;;;;5052467;28;20309;-64
2022/09/07 06:51:14;;;;;;;4.43;3.20;;;17.60;82.30;;;;;;5055886;28;20191;-63
2022/09/07 06:53:40;;;;;;;6.63;4.00;;;17.60;82.80;;;;;;5052219;28;20285;-63
2022/09/07 06:56:12;;;;;;;4.40;3.37;;;17.60;82.60;;;;;;5061440;28;20602;-63
2022/09/07 06:58:38;;;;;;;4.93;3.17;;;17.70;82.50;;;;;;5054193;28;20558;-63
2022/09/07 07:01:06;;;;;;;6.47;3.50;;;17.70;82.70;;;;;;5045295;28;20659;-64
2022/09/07 07:03:32;;;;;;;4.80;3.53;;;17.80;81.90;;;;;;5051589;28;20201;-63
2022/09/07 07:05:58;;;;;;;4.73;3.50;;;17.90;82.00;;;;;;5055022;28;20256;-64
2022/09/07 07:08:24;;;;;;;5.77;4.20;;;17.90;82.00;;;;;;5058242;28;20809;-64
2022/09/07 07:10:50;;;;;;;8.77;3.87;;;18.00;82.30;;;;;;5048704;28;20204;-64
2022/09/07 07:13:17;;;;;;;7.77;4.00;;;18.00;82.70;;;;;;5048725;28;20201;-64
2022/09/07 07:15:43;;;;;;;3.97;3.57;;;18.00;83.30;;;;;;5052303;28;20683;-63
2022/09/07 07:18:09;;;;;;;6.77;3.57;;;18.00;83.30;;;;;;5051216;28;20208;-63
2022/09/07 07:20:36;;;;;;;7.43;3.47;;;18.00;83.00;;;;;;5053723;28;20254;-64
2022/09/07 07:23:02;;;;;;;7.13;3.87;;;18.10;82.60;;;;;;5045719;28;20678;-64
2022/09/07 07:25:28;;;;;;;7.77;3.80;;;18.20;83.00;;;;;;5059115;28;20205;-65
2022/09/07 07:27:53;;;;;;;6.43;3.90;;;18.30;82.60;;;;;;5050362;28;20197;-67
2022/09/07 07:30:19;;;;;;;7.90;3.80;;;18.40;82.40;;;;;;5055614;28;20309;-67
2022/09/07 07:32:45;;;;;;;7.27;3.87;;;18.40;83.30;;;;;;5049052;28;20215;-68
2022/09/07 07:35:13;;;;;;;7.03;3.80;;;18.50;82.90;;;;;;5056693;28;20193;-69
2022/09/07 07:37:38;;;;;;;5.50;3.77;;;18.60;82.60;;;;;;5047940;28;20203;-70
2022/09/07 07:40:07;;;;;;;8.10;3.97;;;18.70;82.00;;;;;;5058626;28;20569;-69
2022/09/07 07:42:34;;;;;;;4.60;3.83;;;18.90;81.90;;;;;;5051742;28;20206;-74
2022/09/07 07:45:03;;;;;;;3.70;3.37;;;19.00;81.90;;;;;;5055121;28;20235;-74
2022/09/07 07:47:29;;;;;;;6.30;3.80;;;19.20;81.90;;;;;;5058107;28;20680;-69
2022/09/07 07:49:54;;;;;;;6.07;3.63;;;19.30;81.40;;;;;;5063805;28;20216;-67
2022/09/07 07:52:20;;;;;;;4.03;3.50;;;19.40;81.50;;;;;;5062169;28;20194;-67
2022/09/07 07:54:47;;;;;;;5.70;4.17;;;19.40;81.10;;;;;;5065336;28;20201;-67
2022/09/07 07:57:12;;;;;;;7.43;4.30;;;19.40;81.10;;;;;;5059575;28;20190;-67
2022/09/07 07:59:38;;;;;;;4.70;4.17;;;19.40;81.40;;;;;;5065817;28;20260;-67
2022/09/07 08:02:07;;;;;;;11.50;4.43;;;19.30;81.50;;;;;;5057488;28;20208;-82
2022/09/07 08:04:34;;;;;;;4.17;3.77;;;19.30;82.30;;;;;;5050848;28;20695;-66
2022/09/07 08:07:00;;;;;;;5.60;4.60;;;19.40;82.70;;;;;;5054015;28;20197;-68
2022/09/07 08:09:26;;;;;;;6.23;3.97;;;19.40;82.90;;;;;;5059994;28;20221;-73
2022/09/07 08:11:51;;;;;;;6.03;4.10;;;19.50;82.80;;;;;;5054082;28;20190;-72
2022/09/07 08:14:17;;;;;;;6.33;3.90;;;19.60;82.50;;;;;;5054980;28;20664;-70
2022/09/07 08:16:43;;;;;;;5.17;3.87;;;19.70;81.60;;;;;;5066041;28;20228;-67
2022/09/07 08:19:09;;;;;;;7.27;4.23;;;19.80;81.50;;;;;;5054141;28;20208;-66
2022/09/07 08:21:34;;;;;;;8.87;4.97;;;19.90;81.20;;;;;;5051318;28;20663;-66
2022/09/07 08:24:00;;;;;;;6.83;4.07;;;19.90;81.60;;;;;;5057417;28;20326;-67
2022/09/07 08:26:26;;;;;;;4.73;4.30;;;20.10;81.30;;;;;;5057027;28;20629;-68
2022/09/07 08:28:52;;;;;;;6.00;4.37;;;20.20;81.60;;;;;;5060754;28;20212;-68
2022/09/07 08:31:17;;;;;;;5.73;4.60;;;20.30;80.80;;;;;;5056591;28;20256;-68
2022/09/07 08:33:43;;;;;;;7.77;4.60;;;20.50;80.60;;;;;;5055209;28;20199;-68
2022/09/07 08:36:15;;;;;;;4.90;4.33;;;20.60;80.60;;;;;;5059285;28;20272;-68
2022/09/07 08:38:41;;;;;;;5.70;4.50;;;20.70;80.50;;;;;;5051739;28;20580;-68
2022/09/07 08:41:42;;;;;;;7.00;4.20;;;20.80;79.70;;;;;;5051633;28;20190;-68
2022/09/07 08:44:20;;;;;;;6.07;4.53;;;20.90;79.30;;;;;;5055845;28;20212;-67
2022/09/07 08:46:54;;;;;;;8.97;4.13;;;20.90;80.00;;;;;;5055096;28;20202;-66
2022/09/07 08:49:41;;;;;;;6.90;4.13;;;20.90;80.70;;;;;;5053826;28;20215;-68
2022/09/07 08:52:28;;;;;;;7.20;4.13;;;21.00;80.60;;;;;;5058061;28;20205;-67
2022/09/07 08:55:19;;;;;;;6.13;4.37;;;21.20;80.30;;;;;;5051505;28;20486;-67
2022/09/07 08:57:52;;;;;;;7.77;4.70;;;21.20;80.10;;;;;;5055001;28;20183;-67
2022/09/07 09:00:18;;;;;;;8.30;4.90;;;21.30;80.40;;;;;;5059094;28;20243;-67
2022/09/07 09:02:44;;;;;;;8.10;4.90;;;21.40;81.00;;;;;;5061844;28;20191;-67
2022/09/07 09:05:16;;;;;;;8.27;5.23;;;21.50;80.90;;;;;;5056206;28;20682;-68
2022/09/07 09:07:56;;;;;;;5.20;4.43;;;21.60;80.10;;;;;;5063800;28;20284;-67
2022/09/07 09:10:34;;;;;;;7.60;5.17;;;21.60;80.20;;;;;;5051350;28;20218;-66
2022/09/07 09:13:16;;;;;;;6.10;5.23;;;21.60;80.40;;;;;;5057601;28;20186;-65
2022/09/07 09:15:58;;;;;;;6.63;4.83;;;21.70;81.30;;;;;;5055573;28;20194;-65
2022/09/07 09:19:05;;;;;;;5.20;4.50;;;21.70;80.20;;;;;;5056264;28;20248;-65
2022/09/07 09:21:32;;;;;;;5.33;4.60;;;21.80;81.00;;;;;;5047467;28;20198;-69
2022/09/07 09:24:18;;;;;;;6.87;4.67;;;21.90;79.50;;;;;;5055983;28;20206;-68
2022/09/07 09:26:49;;;;;;;6.60;4.90;;;22.00;80.60;;;;;;5058697;28;20229;-67
2022/09/07 09:29:18;;;;;;;11.77;4.33;;;22.00;80.30;;;;;;5057373;28;20706;-69
2022/09/07 09:31:44;;;;;;;5.90;4.27;;;22.10;80.50;;;;;;5062767;28;20190;-67
2022/09/07 09:34:14;;;;;;;6.60;5.00;;;22.20;80.60;;;;;;5055646;28;20210;-67
2022/09/07 09:36:44;;;;;;;6.60;4.27;;;22.40;80.90;;;;;;5058731;28;20186;-67
2022/09/07 09:39:36;;;;;;;7.67;4.47;;;22.50;80.70;;;;;;5058880;28;20664;-67
2022/09/07 09:42:15;;;;;;;7.17;4.90;;;22.70;80.50;;;;;;5061555;28;20224;-66
2022/09/07 09:44:42;;;;;;;4.90;4.50;;;22.80;79.90;;;;;;5049110;28;20202;-68
2022/09/07 09:47:38;;;;;;;7.33;4.83;;;22.90;79.00;;;;;;5049620;28;20465;-67
2022/09/07 09:50:25;;;;;;;7.70;5.13;;;23.00;78.90;;;;;;5046830;28;20229;-68
2022/09/07 09:52:52;;;;;;;6.93;4.80;;;23.10;79.70;;;;;;5054340;28;20198;-67
2022/09/07 09:55:33;;;;;;;4.83;4.40;;;23.20;78.40;;;;;;5057581;28;20293;-66
2022/09/07 09:58:01;;;;;;;11.60;4.20;;;23.30;78.80;;;;;;5062829;28;20329;-67
2022/09/07 10:00:29;;;;;;;6.45;4.93;;;23.40;78.60;;;;;;5062315;28;20211;-67
2022/09/07 10:03:02;;;;;;;5.45;4.75;;;23.60;79.00;;;;;;5061275;28;20208;-67
2022/09/07 10:05:40;;;;;;;6.20;4.88;;;23.80;78.10;;;;;;5045457;28;20678;-67
2022/09/07 10:08:16;;;;;;;5.30;3.75;;;24.00;78.10;;;;;;5062181;28;20277;-68
2022/09/07 10:10:52;;;;;;;8.98;4.88;;;24.20;78.10;;;;;;5050886;28;20694;-67
2022/09/07 10:13:26;;;;;;;5.63;5.05;;;24.40;77.10;;;;;;5051086;28;20207;-67
2022/09/07 10:15:55;;;;;;;6.38;4.47;;;24.60;76.40;;;;;;5058162;28;20186;-67
2022/09/07 10:18:31;;;;;;;8.45;4.65;;;24.80;76.30;;;;;;5053969;28;20201;-66
2022/09/07 10:21:12;;;;;;;6.03;4.93;;;25.00;75.40;;;;;;5059803;28;20696;-66
2022/09/07 10:23:38;;;;;;;5.28;4.75;;;25.20;76.30;;;;;;5034706;28;20299;-66
2022/09/07 10:26:26;;;;;;;8.25;6.80;;;25.40;76.00;;;;;;5052859;28;20234;-67
2022/09/07 10:29:12;;;;;;;6.95;6.03;;;25.60;75.90;;;;;;5056033;28;20218;-69
2022/09/07 10:31:46;;;;;;;9.55;6.07;;;25.50;75.70;;;;;;5057371;28;20266;-68
2022/09/07 10:34:40;;;;;;;9.02;6.30;;;25.40;76.20;;;;;;5053793;28;20335;-68
2022/09/07 10:37:09;;;;;;;5.93;5.30;;;25.40;76.80;;;;;;5053031;28;20202;-68
2022/09/07 10:39:42;;;;;;;11.32;5.97;;;25.30;76.00;;;;;;5054757;28;20219;-67
2022/09/07 10:42:08;;;;;;;8.15;5.68;;;25.30;76.50;;;;;;5056874;28;20245;-66
2022/09/07 10:44:40;;;;;;;5.55;5.05;;;25.20;76.80;;;;;;5046825;28;20289;-67
2022/09/07 10:47:22;;;;;;;11.10;5.97;;;25.10;76.90;;;;;;5054051;28;20740;-70
2022/09/07 10:49:54;;;;;;;7.88;5.63;;;25.00;77.80;;;;;;5055109;28;20222;-68
2022/09/07 10:52:30;;;;;;;6.25;5.72;;;25.00;78.10;;;;;;5054762;28;20193;-69
2022/09/07 10:55:05;;;;;;;6.47;5.82;;;25.00;77.90;;;;;;5053137;28;20209;-69
2022/09/07 10:57:39;;;;;;;6.90;5.80;;;25.00;78.10;;;;;;5056046;28;20184;-68
2022/09/07 11:00:16;;;;;;;7.22;5.53;;;25.10;78.10;;;;;;5051349;28;20742;-68
2022/09/07 11:03:07;;;;;;;7.13;6.05;;;25.20;77.80;;;;;;5052632;28;20645;-68
2022/09/07 11:05:58;;;;;;;7.68;5.88;;;25.20;77.70;;;;;;5050535;28;20198;-68
2022/09/07 11:08:37;;;;;;;6.75;5.50;;;25.30;77.90;;;;;;5053494;28;20203;-68
2022/09/07 11:11:26;;;;;;;8.05;5.65;;;25.40;78.10;;;;;;5026374;28;20200;-71
2022/09/07 11:13:56;;;;;;;6.32;5.75;;;25.60;77.60;;;;;;5047188;28;20565;-64
2022/09/07 11:16:25;;;;;;;6.10;5.50;;;25.80;76.70;;;;;;5054157;28;20394;-64
2022/09/07 11:19:13;;;;;;;7.65;5.70;;;25.90;76.60;;;;;;5050486;28;20568;-64
2022/09/07 11:22:02;;;;;;;5.57;5.07;;;26.10;75.90;;;;;;5053376;28;20713;-65
2022/09/07 11:24:47;;;;;;;7.88;5.43;;;26.20;76.00;;;;;;5052241;28;20214;-67
2022/09/07 11:27:22;;;;;;;5.97;5.28;;;26.20;76.10;;;;;;5054908;28;20222;-67
2022/09/07 11:29:53;;;;;;;6.38;5.78;;;26.10;75.90;;;;;;5052395;28;20999;-69
2022/09/07 11:32:30;;;;;;;6.50;5.85;;;26.10;75.70;;;;;;5056046;28;20694;-69
2022/09/07 11:35:10;;;;;;;5.43;4.93;;;26.10;76.20;;;;;;5051159;28;20208;-69
2022/09/07 11:37:47;;;;;;;6.47;5.88;;;26.30;76.30;;;;;;5055970;28;20539;-70
2022/09/07 11:40:25;;;;;;;8.00;5.50;;;26.60;75.40;;;;;;5052331;28;20255;-69
2022/09/07 11:43:01;;;;;;;7.70;5.25;;;26.70;75.10;;;;;;5057781;28;20189;-68
2022/09/07 11:45:48;;;;;;;7.55;5.97;;;26.80;74.70;;;;;;5047331;28;20701;-67
2022/09/07 11:48:21;;;;;;;11.43;6.25;;;26.90;74.50;;;;;;5054848;28;20197;-68
2022/09/07 11:50:54;;;;;;;7.38;6.05;;;26.90;74.00;;;;;;5052186;28;20223;-68
2022/09/07 11:53:33;;;;;;;8.02;6.35;;;26.80;74.50;;;;;;5053806;28;20200;-68
2022/09/07 11:56:13;;;;;;;5.68;5.22;;;26.80;74.60;;;;;;5055586;28;20297;-69
2022/09/07 11:59:00;;;;;;;5.93;5.43;;;26.80;74.70;;;;;;5058204;28;20224;-70
2022/09/07 12:01:44;;;;;;;5.40;4.90;;;26.70;74.70;;;;;;5055275;28;20193;-69
2022/09/07 12:04:28;;;;;;;6.63;5.43;;;26.70;74.90;;;;;;5054590;28;20696;-69
2022/09/07 12:07:09;;;;;;;6.90;6.28;;;26.70;74.90;;;;;;5052980;28;20333;-70
2022/09/07 12:09:57;;;;;;;6.30;5.15;;;26.70;74.90;;;;;;5051204;28;20733;-70
2022/09/07 12:13:02;;;;;;;6.22;5.63;;;26.60;74.90;;;;;;5047029;28;20205;-69
2022/09/07 12:15:43;;;;;;;5.75;5.25;;;26.70;75.60;;;;;;5042251;28;20205;-69
2022/09/07 12:18:30;;;;;;;5.47;4.97;;;26.90;75.30;;;;;;5056355;28;20740;-70
2022/09/07 12:20:55;;;;;;;6.13;5.53;;;27.30;74.20;;;;;;5044710;28;20203;-70
2022/09/07 12:23:29;;;;;;;6.13;5.35;;;27.90;73.40;;;;;;5050500;28;20618;-70
2022/09/07 12:26:40;;;;;;;6.80;5.78;;;28.60;72.40;;;;;;5058768;28;20697;-70
2022/09/07 12:29:19;;;;;;;6.20;5.70;;;29.10;70.60;;;;;;5055084;28;20214;-70
2022/09/07 12:31:48;;;;;;;7.40;5.38;;;29.20;69.90;;;;;;5057000;28;20255;-70
2022/09/07 12:34:28;;;;;;;5.88;5.28;;;29.20;70.40;;;;;;5058464;28;20251;-70
2022/09/07 12:36:54;;;;;;;5.72;5.22;;;28.90;70.20;;;;;;5057617;28;20191;-69
2022/09/07 12:39:24;;;;;;;6.35;5.68;;;28.50;70.50;;;;;;5055614;28;20201;-69
2022/09/07 12:42:04;;;;;;;7.65;6.90;;;28.10;72.00;;;;;;5048188;28;20210;-68
2022/09/07 12:44:31;;;;;;;6.70;6.07;;;27.70;72.30;;;;;;5055361;28;20572;-68
2022/09/07 12:46:59;;;;;;;6.13;5.63;;;27.40;73.70;;;;;;5060042;28;20244;-70
2022/09/07 12:49:36;;;;;;;5.90;5.45;;;27.20;74.20;;;;;;5054855;28;20228;-69
2022/09/07 12:52:37;;;;;;;5.40;5.00;;;27.00;74.80;;;;;;5060051;28;20650;-69
2022/09/07 12:55:28;;;;;;;7.85;7.15;;;26.70;74.60;;;;;;5050973;28;20297;-69
2022/09/07 12:58:03;;;;;;;6.65;6.15;;;26.60;76.00;;;;;;5058720;28;20221;-68
2022/09/07 13:01:02;;;;;;;7.97;6.30;;;26.40;76.00;;;;;;5062240;28;20218;-70
2022/09/07 13:03:45;;;;;;;7.38;6.68;;;26.30;76.70;;;;;;5060420;28;20614;-69
2022/09/07 13:06:16;;;;;;;7.65;6.95;;;26.30;77.50;;;;;;5053711;28;20770;-70
2022/09/07 13:08:42;;;;;;;7.43;6.63;;;26.30;77.80;;;;;;5056358;28;21011;-67
2022/09/07 13:11:20;;;;;;;8.30;6.65;;;26.30;78.00;;;;;;5054131;28;20679;-69
2022/09/07 13:14:16;;;;;;;13.23;6.45;;;26.40;76.80;;;;;;5058361;28;20553;-68